createdAt,value
2023-05-06T00:00:01.852Z,92.87
2023-05-06T00:01:01.830Z,92.67
2023-05-06T00:02:02.472Z,92.36
2023-05-06T00:03:02.715Z,92.06
2023-05-06T00:04:02.945Z,91.86
2023-05-06T00:05:02.953Z,91.65
2023-05-06T00:06:02.870Z,91.35
2023-05-06T00:07:01.863Z,91.35
2023-05-06T00:08:01.892Z,92.06
2023-05-06T00:09:01.825Z,92.06
2023-05-06T00:10:01.873Z,91.75
2023-05-06T00:11:01.818Z,93.38
2023-05-06T00:12:02.427Z,92.97
2023-05-06T00:13:02.596Z,92.77
2023-05-06T00:14:02.470Z,92.16
2023-05-06T00:15:02.525Z,91.45
2023-05-06T00:16:02.431Z,90.94
2023-05-06T00:17:02.083Z,90.74
2023-05-06T00:18:02.135Z,90.74
2023-05-06T00:19:02.187Z,90.64
2023-05-06T00:20:02.131Z,90.33
2023-05-06T00:21:02.179Z,90.74
2023-05-06T00:22:02.266Z,90.23
2023-05-06T00:23:02.212Z,89.62
2023-05-06T00:24:02.338Z,89.42
2023-05-06T00:25:02.437Z,90.03
2023-05-06T00:26:02.454Z,89.83
2023-05-06T00:27:02.494Z,89.72
2023-05-06T00:28:02.438Z,90.23
2023-05-06T00:29:02.426Z,89.87
2023-05-06T00:30:02.435Z,89.66
2023-05-06T00:31:02.403Z,90.17
2023-05-06T00:32:03.096Z,90.88
2023-05-06T00:33:02.928Z,92.30
2023-05-06T00:34:02.597Z,93.57
2023-05-06T00:35:02.590Z,93.77
2023-05-06T00:36:02.538Z,94.59
2023-05-06T00:37:02.477Z,94.18
2023-05-06T00:38:02.519Z,95.20
2023-05-06T00:39:02.280Z,94.38
2023-05-06T00:40:02.217Z,94.08
2023-05-06T00:41:02.285Z,94.89
2023-05-06T00:42:02.313Z,94.69
2023-05-06T00:43:02.090Z,95.00
2023-05-06T00:44:02.688Z,95.09
2023-05-06T00:45:02.482Z,94.48
2023-05-06T00:46:02.672Z,93.77
2023-05-06T00:47:02.482Z,93.06
2023-05-06T00:48:02.577Z,91.94
2023-05-06T00:49:02.442Z,91.74
2023-05-06T00:50:02.440Z,92.86
2023-05-06T00:51:02.514Z,91.84
2023-05-06T00:52:02.620Z,91.33
2023-05-06T00:53:02.203Z,91.74
2023-05-06T00:54:02.338Z,92.35
2023-05-06T00:55:02.221Z,92.76
2023-05-06T00:56:02.837Z,93.06
2023-05-06T00:57:02.490Z,93.67
2023-05-06T00:58:02.451Z,93.67
2023-05-06T00:59:02.720Z,93.37
2023-05-06T01:00:02.670Z,93.62
2023-05-06T01:01:02.693Z,93.62
2023-05-06T01:02:01.589Z,93.92
2023-05-06T01:03:02.157Z,93.62
2023-05-06T01:04:02.193Z,94.02
2023-05-06T01:05:01.984Z,93.92
2023-05-06T01:06:01.824Z,93.62
2023-05-06T01:07:01.792Z,93.51
2023-05-06T01:08:02.069Z,94.17
2023-05-06T01:09:02.075Z,94.88
2023-05-06T01:10:01.726Z,94.98
2023-05-06T01:11:01.935Z,95.18
2023-05-06T01:12:01.917Z,94.98
2023-05-06T01:13:01.810Z,95.18
2023-05-06T01:14:01.825Z,95.69
2023-05-06T01:15:01.783Z,96.15
2023-05-06T01:16:01.894Z,96.55
2023-05-06T01:17:02.965Z,96.66
2023-05-06T01:18:02.884Z,97.27
2023-05-06T01:19:02.737Z,96.96
2023-05-06T01:20:02.770Z,96.76
2023-05-06T01:21:02.801Z,96.41
2023-05-06T01:22:01.825Z,96.35
2023-05-06T01:23:02.028Z,96.45
2023-05-06T01:24:02.053Z,96.45
2023-05-06T01:25:02.148Z,96.10
2023-05-06T01:26:01.929Z,95.79
2023-05-06T01:27:01.899Z,95.18
2023-05-06T01:28:01.602Z,94.68
2023-05-06T01:29:01.556Z,94.17
2023-05-06T01:30:02.170Z,94.57
2023-05-06T01:31:01.947Z,94.98
2023-05-06T01:32:01.941Z,95.39
2023-05-06T01:33:01.789Z,95.90
2023-05-06T01:34:02.138Z,96.00
2023-05-06T01:35:01.970Z,95.79
2023-05-06T01:36:02.226Z,95.90
2023-05-06T01:37:01.937Z,96.10
2023-05-06T01:38:01.900Z,96.51
2023-05-06T01:39:01.934Z,97.22
2023-05-06T01:42:02.839Z,98.90
2023-05-06T01:43:02.249Z,98.39
2023-05-06T01:44:02.878Z,98.43
2023-05-06T01:45:02.631Z,99.04
2023-05-06T01:46:02.686Z,99.35
2023-05-06T01:47:01.851Z,98.79
2023-05-06T01:48:02.259Z,98.39
2023-05-06T01:49:02.348Z,97.98
2023-05-06T01:50:02.328Z,96.96
2023-05-06T01:51:02.374Z,96.86
2023-05-06T01:52:02.950Z,97.27
2023-05-06T01:53:02.459Z,97.27
2023-05-06T01:54:02.348Z,96.66
2023-05-06T01:55:02.424Z,96.35
2023-05-06T01:56:02.489Z,96.86
2023-05-06T01:57:01.582Z,96.66
2023-05-06T01:58:02.112Z,96.35
2023-05-06T01:59:02.031Z,96.41
2023-05-06T02:00:02.179Z,95.79
2023-05-06T02:01:01.939Z,95.59
2023-05-06T02:02:02.073Z,96.25
2023-05-06T02:03:02.076Z,96.66
2023-05-06T02:04:02.297Z,97.06
2023-05-06T02:05:02.573Z,97.41
2023-05-06T02:06:02.237Z,97.72
2023-05-06T02:07:02.351Z,98.33
2023-05-06T02:08:02.564Z,98.13
2023-05-06T02:09:02.784Z,98.48
2023-05-06T02:10:02.491Z,98.58
2023-05-06T02:11:02.432Z,98.89
2023-05-06T02:12:02.475Z,98.58
2023-05-06T02:13:03.140Z,98.89
2023-05-06T02:14:02.956Z,98.79
2023-05-06T02:15:02.761Z,98.02
2023-05-06T02:16:02.764Z,97.82
2023-05-06T02:17:02.654Z,97.82
2023-05-06T02:18:02.802Z,97.52
2023-05-06T02:19:02.641Z,97.36
2023-05-06T02:20:03.307Z,97.97
2023-05-06T02:21:03.029Z,98.68
2023-05-06T02:22:02.154Z,98.38
2023-05-06T02:23:02.148Z,98.27
2023-05-06T02:24:02.303Z,98.83
2023-05-06T02:25:02.171Z,99.19
2023-05-06T02:26:02.198Z,98.79
2023-05-06T02:27:02.300Z,98.07
2023-05-06T02:28:02.334Z,97.41
2023-05-06T02:29:02.573Z,97.05
2023-05-06T02:30:02.563Z,97.36
2023-05-06T02:31:02.540Z,97.25
2023-05-06T02:32:02.594Z,97.77
2023-05-06T02:33:02.615Z,98.32
2023-05-06T02:34:02.657Z,97.56
2023-05-06T02:35:02.847Z,97.91
2023-05-06T02:36:02.838Z,98.52
2023-05-06T02:37:03.043Z,98.52
2023-05-06T02:38:02.777Z,98.22
2023-05-06T02:39:03.018Z,98.98
2023-05-06T02:40:02.902Z,99.24
2023-05-06T02:41:02.883Z,98.63
2023-05-06T02:42:03.087Z,98.16
2023-05-06T02:43:03.117Z,98.77
2023-05-06T02:44:03.072Z,99.08
2023-05-06T02:45:03.072Z,98.98
2023-05-06T02:46:03.186Z,98.98
2023-05-06T02:47:02.139Z,98.98
2023-05-06T02:48:02.538Z,98.32
2023-05-06T02:49:02.573Z,97.91
2023-05-06T02:50:02.205Z,97.75
2023-05-06T02:51:02.275Z,98.22
2023-05-06T02:52:02.191Z,97.65
2023-05-06T02:53:02.185Z,98.06
2023-05-06T02:54:02.693Z,98.06
2023-05-06T02:55:02.374Z,98.47
2023-05-06T02:56:02.453Z,98.57
2023-05-06T02:57:02.277Z,98.57
2023-05-06T02:58:02.294Z,97.96
2023-05-06T02:59:02.352Z,97.30
2023-05-06T03:00:02.348Z,96.84
2023-05-06T03:01:02.518Z,97.34
2023-05-06T03:02:02.547Z,97.65
2023-05-06T03:03:02.549Z,97.55
2023-05-06T03:04:02.554Z,97.14
2023-05-06T03:05:02.809Z,96.63
2023-05-06T03:06:02.898Z,96.12
2023-05-06T03:07:02.972Z,96.22
2023-05-06T03:08:02.945Z,95.77
2023-05-06T03:09:03.048Z,95.57
2023-05-06T03:10:03.047Z,95.47
2023-05-06T03:11:02.995Z,94.95
2023-05-06T03:12:03.351Z,94.55
2023-05-06T03:13:03.642Z,94.45
2023-05-06T03:14:02.900Z,94.79
2023-05-06T03:15:02.882Z,94.90
2023-05-06T03:16:02.996Z,94.65
2023-05-06T03:17:02.725Z,94.49
2023-05-06T03:18:03.040Z,95.10
2023-05-06T03:19:03.074Z,94.45
2023-05-06T03:20:03.031Z,94.38
2023-05-06T03:21:03.104Z,94.38
2023-05-06T03:22:02.885Z,94.70
2023-05-06T03:23:02.927Z,94.79
2023-05-06T03:24:03.059Z,94.90
2023-05-06T03:25:03.176Z,95.00
2023-05-06T03:26:02.883Z,95.41
2023-05-06T03:27:02.472Z,94.79
2023-05-06T03:28:02.800Z,94.29
2023-05-06T03:29:02.292Z,94.18
2023-05-06T03:30:02.868Z,94.18
2023-05-06T03:31:02.623Z,94.29
2023-05-06T03:32:02.712Z,94.79
2023-05-06T03:33:02.841Z,94.59
2023-05-06T03:34:03.085Z,94.38
2023-05-06T03:35:02.990Z,94.74
2023-05-06T03:36:03.010Z,95.15
2023-05-06T03:37:03.132Z,96.01
2023-05-06T03:38:03.177Z,96.01
2023-05-06T03:39:03.192Z,96.51
2023-05-06T03:40:03.167Z,96.31
2023-05-06T03:41:03.285Z,96.51
2023-05-06T03:42:03.296Z,96.42
2023-05-06T03:43:03.413Z,96.62
2023-05-06T03:44:03.542Z,96.62
2023-05-06T03:45:03.625Z,97.03
2023-05-06T03:46:03.663Z,97.54
2023-05-06T03:47:02.772Z,97.44
2023-05-06T03:48:02.802Z,96.51
2023-05-06T03:49:02.604Z,96.42
2023-05-06T03:50:02.843Z,96.31
2023-05-06T03:51:02.563Z,96.21
2023-05-06T03:52:02.727Z,95.90
2023-05-06T03:53:02.574Z,96.01
2023-05-06T03:54:02.670Z,96.01
2023-05-06T03:55:02.704Z,96.01
2023-05-06T03:56:02.465Z,96.51
2023-05-06T03:57:03.204Z,96.31
2023-05-06T03:58:03.274Z,96.11
2023-05-06T03:59:03.312Z,95.70
2023-05-06T04:00:03.416Z,95.50
2023-05-06T04:01:02.968Z,94.94
2023-05-06T04:02:02.980Z,94.68
2023-05-06T04:03:02.961Z,94.89
2023-05-06T04:04:02.620Z,95.50
2023-05-06T04:05:02.729Z,95.70
2023-05-06T04:06:02.764Z,95.39
2023-05-06T04:07:02.941Z,95.19
2023-05-06T04:08:03.027Z,94.68
2023-05-06T04:09:03.147Z,95.29
2023-05-06T04:10:02.961Z,95.29
2023-05-06T04:11:03.100Z,95.25
2023-05-06T04:12:02.886Z,94.02
2023-05-06T04:13:02.972Z,93.51
2023-05-06T04:14:03.038Z,93.86
2023-05-06T04:15:03.049Z,94.37
2023-05-06T04:16:03.487Z,94.89
2023-05-06T04:17:03.297Z,94.58
2023-05-06T04:18:02.948Z,94.48
2023-05-06T04:19:04.399Z,94.68
2023-05-06T04:20:02.963Z,94.93
2023-05-06T04:21:03.033Z,95.44
2023-05-06T04:22:02.854Z,95.95
2023-05-06T04:23:02.881Z,96.51
2023-05-06T04:24:02.970Z,97.33
2023-05-06T04:25:02.699Z,96.97
2023-05-06T04:26:02.963Z,96.41
2023-05-06T04:27:03.056Z,96.15
2023-05-06T04:28:02.819Z,96.20
2023-05-06T04:29:02.897Z,96.41
2023-05-06T04:30:02.923Z,97.16
2023-05-06T04:31:03.112Z,96.92
2023-05-06T04:32:02.854Z,96.81
2023-05-06T04:33:02.527Z,97.12
2023-05-06T04:34:02.371Z,96.61
2023-05-06T04:35:02.408Z,96.92
2023-05-06T04:36:02.465Z,96.67
2023-05-06T04:37:03.261Z,96.36
2023-05-06T04:38:03.366Z,95.85
2023-05-06T04:39:03.268Z,95.85
2023-05-06T04:40:03.009Z,95.95
2023-05-06T04:41:03.191Z,96.26
2023-05-06T04:42:03.450Z,96.71
2023-05-06T04:43:03.501Z,96.92
2023-05-06T04:44:03.568Z,96.92
2023-05-06T04:45:03.514Z,97.33
2023-05-06T04:46:03.458Z,97.74
2023-05-06T04:47:02.345Z,97.53
2023-05-06T04:48:02.677Z,96.87
2023-05-06T04:49:02.725Z,97.22
2023-05-06T04:50:02.715Z,97.42
2023-05-06T04:51:02.297Z,97.78
2023-05-06T04:52:02.710Z,97.98
2023-05-06T04:53:02.416Z,98.29
2023-05-06T04:54:02.676Z,98.49
2023-05-06T04:55:02.382Z,98.80
2023-05-06T04:56:02.512Z,98.08
2023-05-06T04:57:02.753Z,97.98
2023-05-06T04:58:02.481Z,98.29
2023-05-06T04:59:02.162Z,98.45
2023-05-06T05:00:02.216Z,97.94
2023-05-06T05:01:02.654Z,97.69
2023-05-06T05:02:02.746Z,96.87
2023-05-06T05:03:02.993Z,96.21
2023-05-06T05:04:02.526Z,96.01
2023-05-06T05:05:02.621Z,95.70
2023-05-06T05:06:02.696Z,95.90
2023-05-06T05:07:02.588Z,96.01
2023-05-06T05:08:02.448Z,96.05
2023-05-06T05:09:02.569Z,95.95
2023-05-06T05:10:02.439Z,96.36
2023-05-06T05:11:01.983Z,96.21
2023-05-06T05:12:02.672Z,96.51
2023-05-06T05:13:02.798Z,95.90
2023-05-06T05:14:02.745Z,95.39
2023-05-06T05:15:02.663Z,94.84
2023-05-06T05:16:02.439Z,95.65
2023-05-06T05:17:02.365Z,96.47
2023-05-06T05:18:01.783Z,97.60
2023-05-06T05:19:03.616Z,99.02
2023-05-06T05:20:02.064Z,99.84
2023-05-06T05:21:02.225Z,99.99
2023-05-06T05:22:02.814Z,99.99
2023-05-06T05:23:02.709Z,99.99
2023-05-06T05:24:02.860Z,99.99
2023-05-06T05:25:02.795Z,99.99
2023-05-06T05:26:02.795Z,99.99
2023-05-06T05:27:02.325Z,99.99
2023-05-06T05:28:02.198Z,99.99
2023-05-06T05:29:02.263Z,99.99
2023-05-06T05:30:02.227Z,99.99
2023-05-06T05:31:02.011Z,99.99
2023-05-06T05:32:02.691Z,99.99
2023-05-06T05:33:02.576Z,99.99
2023-05-06T05:34:02.482Z,99.80
2023-05-06T05:35:02.629Z,99.40
2023-05-06T05:36:02.574Z,99.29
2023-05-06T05:37:01.663Z,99.50
2023-05-06T05:38:01.793Z,99.70
2023-05-06T05:39:02.047Z,99.91
2023-05-06T05:40:02.135Z,99.50
2023-05-06T05:41:01.625Z,99.80
2023-05-06T05:42:01.713Z,99.99
2023-05-06T05:43:01.825Z,99.99
2023-05-06T05:44:01.885Z,99.99
2023-05-06T05:45:02.088Z,99.99
2023-05-06T05:46:02.182Z,99.35
2023-05-06T05:47:01.757Z,99.66
2023-05-06T05:48:01.886Z,99.96
2023-05-06T05:49:02.093Z,99.99
2023-05-06T05:50:02.257Z,99.76
2023-05-06T05:51:01.989Z,99.51
2023-05-06T05:52:02.187Z,99.41
2023-05-06T05:53:02.329Z,99.51
2023-05-06T05:54:02.396Z,99.51
2023-05-06T05:55:02.483Z,99.61
2023-05-06T05:56:02.581Z,99.51
2023-05-06T05:57:01.800Z,99.10
2023-05-06T05:58:01.836Z,99.30
2023-05-06T05:59:01.801Z,99.26
2023-05-06T06:00:01.916Z,99.05
2023-05-06T06:01:02.136Z,98.54
2023-05-06T06:02:02.300Z,97.99
2023-05-06T06:03:02.443Z,97.89
2023-05-06T06:04:02.678Z,97.38
2023-05-06T06:05:02.732Z,97.03
2023-05-06T06:06:02.808Z,97.23
2023-05-06T06:07:02.610Z,97.89
2023-05-06T06:08:03.881Z,97.44
2023-05-06T06:09:02.965Z,97.74
2023-05-06T06:10:03.166Z,97.53
2023-05-06T06:11:02.907Z,97.23
2023-05-06T06:12:02.167Z,97.44
2023-05-06T06:13:02.359Z,97.33
2023-05-06T06:14:02.527Z,97.29
2023-05-06T06:15:02.097Z,97.19
2023-05-06T06:16:02.253Z,97.39
2023-05-06T06:17:02.199Z,97.29
2023-05-06T06:18:02.576Z,97.08
2023-05-06T06:19:02.599Z,97.19
2023-05-06T06:20:02.033Z,97.39
2023-05-06T06:21:02.185Z,97.39
2023-05-06T06:22:02.367Z,97.29
2023-05-06T06:23:02.545Z,96.88
2023-05-06T06:24:02.764Z,97.08
2023-05-06T06:25:02.206Z,97.60
2023-05-06T06:26:02.327Z,97.39
2023-05-06T06:27:02.408Z,97.49
2023-05-06T06:28:02.604Z,97.69
2023-05-06T06:29:02.731Z,97.49
2023-05-06T06:30:02.918Z,96.88
2023-05-06T06:31:02.819Z,96.98
2023-05-06T06:32:02.933Z,97.39
2023-05-06T06:33:03.085Z,97.14
2023-05-06T06:34:03.051Z,96.73
2023-05-06T06:35:03.125Z,96.94
2023-05-06T06:36:03.265Z,97.14
2023-05-06T06:37:02.482Z,96.83
2023-05-06T06:38:02.727Z,96.63
2023-05-06T06:39:02.662Z,96.73
2023-05-06T06:40:02.778Z,97.04
2023-05-06T06:41:02.245Z,97.24
2023-05-06T06:42:02.028Z,96.83
2023-05-06T06:43:02.281Z,97.24
2023-05-06T06:44:02.054Z,97.34
2023-05-06T06:45:02.338Z,97.14
2023-05-06T06:46:01.874Z,97.34
2023-05-06T06:47:02.578Z,97.65
2023-05-06T06:48:02.819Z,97.65
2023-05-06T06:49:02.961Z,97.20
2023-05-06T06:50:02.935Z,96.79
2023-05-06T06:51:02.868Z,97.09
2023-05-06T06:52:02.128Z,97.40
2023-05-06T06:53:04.803Z,97.25
2023-05-06T06:54:01.898Z,97.05
2023-05-06T06:55:02.059Z,96.44
2023-05-06T06:56:02.272Z,96.54
2023-05-06T06:57:02.491Z,96.54
2023-05-06T06:58:02.674Z,96.80
2023-05-06T06:59:02.145Z,96.19
2023-05-06T07:00:02.352Z,96.30
2023-05-06T07:01:02.746Z,96.35
2023-05-06T07:02:02.735Z,96.35
2023-05-06T07:03:03.103Z,96.41
2023-05-06T07:04:04.288Z,96.41
2023-05-06T07:05:03.073Z,96.15
2023-05-06T07:06:03.013Z,95.35
2023-05-06T07:07:02.991Z,95.10
2023-05-06T07:08:03.239Z,94.39
2023-05-06T07:09:03.057Z,94.35
2023-05-06T07:10:03.186Z,94.04
2023-05-06T07:11:03.257Z,92.93
2023-05-06T07:12:02.733Z,92.52
2023-05-06T07:13:02.431Z,92.58
2023-05-06T07:14:02.668Z,91.47
2023-05-06T07:15:02.258Z,91.92
2023-05-06T07:16:02.527Z,93.29
2023-05-06T07:17:02.741Z,92.28
2023-05-06T07:18:02.949Z,91.41
2023-05-06T07:19:02.815Z,91.41
2023-05-06T07:20:02.922Z,91.82
2023-05-06T07:21:02.909Z,92.32
2023-05-06T07:22:02.880Z,92.72
2023-05-06T07:23:02.923Z,93.84
2023-05-06T07:24:02.701Z,93.59
2023-05-06T07:25:02.885Z,92.88
2023-05-06T07:26:03.018Z,92.48
2023-05-06T07:27:03.157Z,92.99
2023-05-06T07:28:03.425Z,93.15
2023-05-06T07:29:03.335Z,92.44
2023-05-06T07:30:03.278Z,92.24
2023-05-06T07:31:03.474Z,92.69
2023-05-06T07:32:03.501Z,92.29
2023-05-06T07:33:03.778Z,91.74
2023-05-06T07:34:03.685Z,91.74
2023-05-06T07:35:03.342Z,90.69
2023-05-06T07:36:03.257Z,90.08
2023-05-06T07:37:03.115Z,90.19
2023-05-06T07:38:02.864Z,90.99
2023-05-06T07:39:03.204Z,90.34
2023-05-06T07:40:03.327Z,90.75
2023-05-06T07:41:03.285Z,90.30
2023-05-06T07:42:03.487Z,88.79
2023-05-06T07:43:03.690Z,87.94
2023-05-06T07:44:03.719Z,87.43
2023-05-06T07:45:03.503Z,88.04
2023-05-06T07:46:03.540Z,88.00
2023-05-06T07:47:02.820Z,88.36
2023-05-06T07:48:02.999Z,87.85
2023-05-06T07:49:02.976Z,87.92
2023-05-06T07:50:02.962Z,87.01
2023-05-06T07:51:02.816Z,85.46
2023-05-06T07:52:03.082Z,85.25
2023-05-06T07:53:03.271Z,86.26
2023-05-06T07:54:03.134Z,85.82
2023-05-06T07:55:02.836Z,84.81
2023-05-06T07:56:03.022Z,83.81
2023-05-06T07:57:03.176Z,84.01
2023-05-06T07:58:02.910Z,84.41
2023-05-06T07:59:02.809Z,84.21
2023-05-06T08:00:03.021Z,84.51
2023-05-06T08:01:02.967Z,84.77
2023-05-06T08:02:02.811Z,84.07
2023-05-06T08:03:02.851Z,84.47
2023-05-06T08:04:02.975Z,84.33
2023-05-06T08:05:02.310Z,83.12
2023-05-06T08:06:02.793Z,83.89
2023-05-06T08:07:03.064Z,81.74
2023-05-06T08:08:02.748Z,80.13
2023-05-06T08:09:02.798Z,80.13
2023-05-06T08:10:02.872Z,79.99
2023-05-06T08:11:03.195Z,80.26
2023-05-06T08:12:03.240Z,80.16
2023-05-06T08:13:02.848Z,77.51
2023-05-06T08:14:02.744Z,76.81
2023-05-06T08:15:02.823Z,74.71
2023-05-06T08:16:03.006Z,75.51
2023-05-06T08:17:02.734Z,76.47
2023-05-06T08:18:10.379Z,76.98
2023-05-06T08:19:02.805Z,76.07
2023-05-06T08:20:02.580Z,74.73
2023-05-06T08:21:02.428Z,75.63
2023-05-06T08:22:03.296Z,75.30
2023-05-06T08:23:03.286Z,73.19
2023-05-06T08:24:03.287Z,73.80
2023-05-06T08:25:03.167Z,71.16
2023-05-06T08:26:03.368Z,70.36
2023-05-06T08:27:02.982Z,70.79
2023-05-06T08:28:02.696Z,70.09
2023-05-06T08:29:02.904Z,71.66
2023-05-06T08:30:02.750Z,71.16
2023-05-06T08:31:02.847Z,71.62
2023-05-06T08:32:03.302Z,70.03
2023-05-06T08:33:03.099Z,70.73
2023-05-06T08:34:02.774Z,70.43
2023-05-06T08:35:03.029Z,70.66
2023-05-06T08:36:02.630Z,70.66
2023-05-06T08:37:03.400Z,68.86
2023-05-06T08:38:02.950Z,68.16
2023-05-06T08:39:02.968Z,70.56
2023-05-06T08:40:03.140Z,70.26
2023-05-06T08:41:03.138Z,70.26
2023-05-06T08:42:02.494Z,71.36
2023-05-06T08:43:02.632Z,71.86
2023-05-06T08:44:02.774Z,70.76
2023-05-06T08:45:03.010Z,71.83
2023-05-06T08:46:03.192Z,71.73
2023-05-06T08:47:03.173Z,70.53
2023-05-06T08:48:02.541Z,69.99
2023-05-06T08:49:02.781Z,70.19
2023-05-06T08:50:02.629Z,69.89
2023-05-06T08:51:02.680Z,70.19
2023-05-06T08:52:02.871Z,69.29
2023-05-06T08:53:02.362Z,71.49
2023-05-06T08:54:02.549Z,71.26
2023-05-06T08:55:02.081Z,70.23
2023-05-06T08:56:02.291Z,69.93
2023-05-06T08:57:02.678Z,68.23
2023-05-06T08:58:02.322Z,68.23
2023-05-06T08:59:02.439Z,68.33
2023-05-06T09:00:02.807Z,68.52
2023-05-06T09:01:02.813Z,68.13
2023-05-06T09:02:02.689Z,67.72
2023-05-06T09:03:02.811Z,69.02
2023-05-06T09:04:02.971Z,69.02
2023-05-06T09:05:02.743Z,68.70
2023-05-06T09:06:02.920Z,68.49
2023-05-06T09:07:02.536Z,68.29
2023-05-06T09:08:02.421Z,67.76
2023-05-06T09:09:02.596Z,68.96
2023-05-06T09:10:02.529Z,68.03
2023-05-06T09:11:02.392Z,68.73
2023-05-06T09:12:02.279Z,66.60
2023-05-06T09:13:02.313Z,67.60
2023-05-06T09:14:01.963Z,66.67
2023-05-06T09:15:02.221Z,65.17
2023-05-06T09:16:01.886Z,64.37
2023-05-06T09:17:01.956Z,64.31
2023-05-06T09:18:02.899Z,66.50
2023-05-06T09:19:02.525Z,66.77
2023-05-06T09:20:02.787Z,65.67
2023-05-06T09:21:02.949Z,65.08
2023-05-06T09:22:02.603Z,65.70
2023-05-06T09:23:02.426Z,66.00
2023-05-06T09:24:02.522Z,66.50
2023-05-06T09:25:02.217Z,66.00
2023-05-06T09:26:02.066Z,65.80
2023-05-06T09:27:02.155Z,66.67
2023-05-06T09:28:02.790Z,65.67
2023-05-06T09:29:02.363Z,64.37
2023-05-06T09:30:02.531Z,64.87
2023-05-06T09:31:02.883Z,66.04
2023-05-06T09:32:02.942Z,67.73
2023-05-06T09:33:02.030Z,66.20
2023-05-06T09:34:02.204Z,65.88
2023-05-06T09:35:02.457Z,65.25
2023-05-06T09:36:02.247Z,64.85
2023-05-06T09:37:02.277Z,63.82
2023-05-06T09:38:04.282Z,63.10
2023-05-06T09:39:02.998Z,63.17
2023-05-06T09:40:02.504Z,63.07
2023-05-06T09:41:02.612Z,61.68
2023-05-06T09:42:02.823Z,60.06
2023-05-06T09:43:02.127Z,60.28
2023-05-06T09:44:02.194Z,61.08
2023-05-06T09:45:02.476Z,60.31
2023-05-06T09:46:02.627Z,61.11
2023-05-06T09:47:02.582Z,61.44
2023-05-06T09:48:02.883Z,61.14
2023-05-06T09:49:02.959Z,60.14
2023-05-06T09:50:03.093Z,60.35
2023-05-06T09:51:03.208Z,62.13
2023-05-06T09:52:02.854Z,61.11
2023-05-06T09:53:02.614Z,58.73
2023-05-06T09:54:02.261Z,58.92
2023-05-06T09:55:01.958Z,58.73
2023-05-06T09:56:02.481Z,60.02
2023-05-06T09:57:02.618Z,59.82
2023-05-06T09:58:02.578Z,59.12
2023-05-06T09:59:02.871Z,60.12
2023-05-06T10:00:02.828Z,58.73
2023-05-06T10:01:03.139Z,58.36
2023-05-06T10:02:03.124Z,59.22
2023-05-06T10:03:02.454Z,57.24
2023-05-06T10:04:02.788Z,59.55
2023-05-06T10:05:02.812Z,58.95
2023-05-06T10:06:02.245Z,60.05
2023-05-06T10:07:02.345Z,59.15
2023-05-06T10:08:02.655Z,57.76
2023-05-06T10:09:02.494Z,58.06
2023-05-06T10:10:02.531Z,58.95
2023-05-06T10:11:02.678Z,58.53
2023-05-06T10:12:02.498Z,59.22
2023-05-06T10:14:27.777Z,60.69
2023-05-06T10:15:02.004Z,60.26
2023-05-06T10:16:02.240Z,59.76
2023-05-06T10:17:02.467Z,57.95
2023-05-06T10:18:02.475Z,57.45
2023-05-06T10:19:02.546Z,55.57
2023-05-06T10:20:02.681Z,56.06
2023-05-06T10:21:02.197Z,56.76
2023-05-06T10:22:03.858Z,56.16
2023-05-06T10:23:02.478Z,57.03
2023-05-06T10:24:03.067Z,56.04
2023-05-06T10:25:02.989Z,55.04
2023-05-06T10:26:02.960Z,55.36
2023-05-06T10:27:02.602Z,55.66
2023-05-06T10:31:03.144Z,56.53
2023-05-06T10:32:03.005Z,55.64
2023-05-06T10:33:02.525Z,55.27
2023-05-06T10:34:02.257Z,56.66
2023-05-06T10:35:02.511Z,56.85
2023-05-06T10:36:02.022Z,59.14
2023-05-06T10:37:02.100Z,61.19
2023-05-06T10:38:03.317Z,58.39
2023-05-06T10:39:03.260Z,57.69
2023-05-06T10:40:02.993Z,56.51
2023-05-06T10:41:03.286Z,53.83
2023-05-06T10:42:02.842Z,55.71
2023-05-06T10:43:02.189Z,55.15
2023-05-06T10:44:02.387Z,54.62
2023-05-06T10:45:02.409Z,54.35
2023-05-06T10:46:02.418Z,55.07
2023-05-06T10:47:01.829Z,55.89
2023-05-06T10:48:02.779Z,56.29
2023-05-06T10:49:02.981Z,55.17
2023-05-06T10:50:02.880Z,55.49
2023-05-06T10:51:02.649Z,54.70
2023-05-06T10:52:02.580Z,55.57
2023-05-06T10:53:02.520Z,56.06
2023-05-06T10:54:02.591Z,55.64
2023-05-06T10:55:02.194Z,53.75
2023-05-06T10:56:02.587Z,55.24
2023-05-06T10:57:02.156Z,54.25
2023-05-06T10:58:03.094Z,54.22
2023-05-06T10:59:03.323Z,55.61
2023-05-06T11:00:03.226Z,53.60
2023-05-06T11:01:02.820Z,53.28
2023-05-06T11:02:03.165Z,52.49
2023-05-06T11:03:03.468Z,51.50
2023-05-06T11:04:02.998Z,52.36
2023-05-06T11:05:03.180Z,51.47
2023-05-06T11:06:03.310Z,51.57
2023-05-06T11:07:03.599Z,51.40
2023-05-06T11:08:02.517Z,52.61
2023-05-06T11:09:02.635Z,53.11
2023-05-06T11:10:02.745Z,52.61
2023-05-06T11:11:02.246Z,53.92
2023-05-06T11:12:02.628Z,53.03
2023-05-06T11:13:02.588Z,53.33
2023-05-06T11:14:02.714Z,53.13
2023-05-06T11:15:02.785Z,53.26
2023-05-06T11:16:02.885Z,53.23
2023-05-06T11:17:02.490Z,54.82
2023-05-06T11:18:03.485Z,54.30
2023-05-06T11:19:03.140Z,54.57
2023-05-06T11:20:03.348Z,54.37
2023-05-06T11:21:03.739Z,53.38
2023-05-06T11:22:03.546Z,53.67
2023-05-06T11:23:02.800Z,52.49
2023-05-06T11:24:02.347Z,51.50
2023-05-06T11:25:02.586Z,51.92
2023-05-06T11:26:02.861Z,52.31
2023-05-06T11:27:02.517Z,52.94
2023-05-06T11:28:03.378Z,53.23
2023-05-06T11:29:02.872Z,52.94
2023-05-06T11:30:03.111Z,53.23
2023-05-06T11:31:03.307Z,54.92
2023-05-06T11:32:02.853Z,53.90
2023-05-06T11:36:02.652Z,51.57
2023-05-06T11:37:03.028Z,49.89
2023-05-06T11:38:02.859Z,50.01
2023-05-06T11:39:05.182Z,50.01
2023-05-06T11:40:02.812Z,50.90
2023-05-06T11:41:02.970Z,51.47
2023-05-06T11:42:02.476Z,51.37
2023-05-06T11:43:03.456Z,49.29
2023-05-06T11:44:03.711Z,50.21
2023-05-06T11:45:03.322Z,49.94
2023-05-06T11:46:02.965Z,49.94
2023-05-06T11:47:03.534Z,51.23
2023-05-06T11:48:03.461Z,50.23
2023-05-06T11:49:03.086Z,51.00
2023-05-06T11:50:03.454Z,51.00
2023-05-06T11:51:03.045Z,50.01
2023-05-06T11:52:03.174Z,50.01
2023-05-06T11:53:03.127Z,49.12
2023-05-06T11:54:03.092Z,49.84
2023-05-06T11:55:03.266Z,50.73
2023-05-06T11:56:03.262Z,49.34
2023-05-06T12:45:08.192Z,51.32
2023-05-06T12:46:08.357Z,51.95
2023-05-06T12:47:08.505Z,52.54
2023-05-06T12:48:08.109Z,52.64
2023-05-06T12:49:08.264Z,52.61
2023-05-06T12:49:13.521Z,52.72
2023-05-06T12:50:02.810Z,52.81
2023-05-06T12:51:02.986Z,52.91
2023-05-06T12:52:02.594Z,52.98
2023-05-06T12:53:02.567Z,53.28
2023-05-06T12:54:02.745Z,52.79
2023-05-06T12:55:02.951Z,52.49
2023-05-06T12:56:03.323Z,52.19
2023-05-06T12:57:03.290Z,51.10
2023-05-06T12:58:03.265Z,51.20
2023-05-06T12:59:03.104Z,51.89
2023-05-06T13:00:03.260Z,50.81
2023-05-06T13:01:03.838Z,51.10
2023-05-06T13:02:03.572Z,52.69
2023-05-06T13:03:03.571Z,51.50
2023-05-06T13:04:03.244Z,51.70
2023-05-06T13:05:02.556Z,53.11
2023-05-06T13:06:02.264Z,53.80
2023-05-06T13:07:02.465Z,54.33
2023-05-06T13:08:02.773Z,54.25
2023-05-06T13:09:02.665Z,55.18
2023-05-06T13:10:03.187Z,56.20
2023-05-06T13:11:02.670Z,55.90
2023-05-06T13:12:02.834Z,56.10
2023-05-06T13:13:02.691Z,55.87
2023-05-06T13:14:02.953Z,55.67
2023-05-06T13:15:03.136Z,55.77
2023-05-06T13:16:02.831Z,56.47
2023-05-06T13:17:03.225Z,56.20
2023-05-06T13:18:03.247Z,56.89
2023-05-06T13:19:02.856Z,54.60
2023-05-06T13:20:05.030Z,54.90
2023-05-06T13:21:02.701Z,55.93
2023-05-06T13:22:02.870Z,55.43
2023-05-06T13:23:02.789Z,56.12
2023-05-06T13:24:02.555Z,56.32
2023-05-06T13:25:03.494Z,56.12
2023-05-06T13:26:05.398Z,56.23
2023-05-06T13:27:03.736Z,54.56
2023-05-06T13:28:03.726Z,54.75
2023-05-06T13:29:03.565Z,54.19
2023-05-06T13:30:02.593Z,54.01
2023-05-06T13:31:02.423Z,54.64
2023-05-06T13:32:02.411Z,55.83
2023-05-06T13:33:02.749Z,54.24
2023-05-06T13:34:02.758Z,54.74
2023-05-06T13:35:02.997Z,55.86
2023-05-06T13:36:05.108Z,56.06
2023-05-06T13:37:02.584Z,55.56
2023-05-06T13:38:02.713Z,56.16
2023-05-06T13:39:03.218Z,56.03
2023-05-06T13:40:03.216Z,55.33
2023-05-06T13:41:02.767Z,54.46
2023-05-06T13:42:03.485Z,54.36
2023-05-06T13:43:03.156Z,55.26
2023-05-06T13:44:03.304Z,55.46
2023-05-06T13:45:03.418Z,55.96
2023-05-06T13:46:03.513Z,56.76
2023-05-06T13:47:03.670Z,56.16
2023-05-06T13:48:03.165Z,56.26